Time;durP1;ratioP1;P1;durP2;ratioP2;P2;SDS_P1;SDS_P2;PMS_P1;PMS_P2;Temp;Humidity;BMP_temperature;BMP_pressure;BME280_temperature;BME280_humidity;BME280_pressure;Samples;Min_cycle;Max_cycle;Signal;HPM_P1;HPM_P2
2023/06/07 00:02:16;;;;;;;3.53;1.50;;;10.20;99.90;;;;;;5095155;28;20120;-71
2023/06/07 00:04:41;;;;;;;2.08;1.00;;;10.20;99.90;;;;;;5094047;28;20039;-71
2023/06/07 00:07:08;;;;;;;1.42;0.90;;;10.20;99.90;;;;;;5094521;28;20123;-71
2023/06/07 00:09:33;;;;;;;;;;;10.10;99.90;;;;;;5095798;28;20432;-71
2023/06/07 00:11:59;;;;;;;1.60;0.90;;;10.10;99.90;;;;;;5127186;27;19916;-71
2023/06/07 00:14:25;;;;;;;2.00;0.95;;;10.10;99.90;;;;;;5095167;28;20047;-71
2023/06/07 00:16:52;;;;;;;1.40;0.80;;;10.00;99.90;;;;;;5112932;28;20765;-71
2023/06/07 00:19:24;;;;;;;3.05;1.27;;;10.00;99.90;;;;;;5094757;28;20050;-71
2023/06/07 00:21:51;;;;;;;2.70;1.08;;;10.00;99.90;;;;;;5077341;28;20459;-70
2023/06/07 00:24:18;;;;;;;2.05;0.80;;;10.00;99.90;;;;;;5128780;27;20079;-71
2023/06/07 00:26:44;;;;;;;2.60;1.10;;;10.00;99.90;;;;;;5112963;28;20040;-71
2023/06/07 00:29:10;;;;;;;1.58;0.88;;;10.00;99.90;;;;;;5094448;28;20431;-71
2023/06/07 00:31:36;;;;;;;1.63;0.70;;;10.00;99.90;;;;;;5094937;28;20051;-70
2023/06/07 00:34:03;;;;;;;1.10;0.65;;;10.00;99.90;;;;;;5128668;27;20098;-71
2023/06/07 00:36:29;;;;;;;1.30;0.70;;;10.00;99.90;;;;;;5114812;27;20043;-71
2023/06/07 00:38:55;;;;;;;1.50;0.65;;;10.00;99.90;;;;;;5109873;28;20031;-71
2023/06/07 00:41:21;;;;;;;2.63;1.10;;;10.00;99.90;;;;;;5093682;28;20134;-71
2023/06/07 00:43:48;;;;;;;2.95;1.27;;;9.90;99.90;;;;;;5092772;28;20076;-70
2023/06/07 00:46:19;;;;;;;1.08;0.60;;;10.00;99.90;;;;;;5092898;28;20079;-71
2023/06/07 00:48:46;;;;;;;1.10;0.73;;;9.90;99.90;;;;;;5092720;28;20040;-70
2023/06/07 00:51:14;;;;;;;0.75;0.50;;;9.90;99.90;;;;;;5093736;28;20048;-71
2023/06/07 00:53:41;;;;;;;0.73;0.50;;;9.90;99.90;;;;;;5091251;28;20088;-71
2023/06/07 00:56:07;;;;;;;1.98;0.60;;;9.90;99.90;;;;;;5125726;27;20043;-70
2023/06/07 00:58:34;;;;;;;1.70;0.80;;;9.90;99.90;;;;;;5075475;28;20027;-71
2023/06/07 01:01:00;;;;;;;1.50;0.82;;;9.90;99.90;;;;;;5075618;28;20043;-71
2023/06/07 01:03:27;;;;;;;0.75;0.60;;;9.90;99.90;;;;;;5109829;28;20565;-70
2023/06/07 01:05:53;;;;;;;0.85;0.50;;;9.90;99.90;;;;;;5074380;28;20386;-71
2023/06/07 01:08:20;;;;;;;;;;;9.90;99.90;;;;;;5086586;28;20659;-71
2023/06/07 01:10:47;;;;;;;0.67;0.53;;;9.80;99.90;;;;;;5092551;28;19919;-71
2023/06/07 01:13:14;;;;;;;0.82;0.60;;;9.80;99.90;;;;;;5092215;28;20509;-71
2023/06/07 01:15:41;;;;;;;0.90;0.68;;;9.80;99.90;;;;;;5109016;28;20047;-71
2023/06/07 01:18:09;;;;;;;1.38;0.60;;;9.80;99.90;;;;;;5074838;28;20050;-71
2023/06/07 01:20:38;;;;;;;1.38;0.57;;;9.80;99.90;;;;;;5091092;28;20036;-71
2023/06/07 01:23:06;;;;;;;1.00;0.50;;;9.70;99.90;;;;;;5107578;28;20124;-71
2023/06/07 01:25:32;;;;;;;1.77;0.80;;;9.70;99.90;;;;;;5111051;28;20394;-71
2023/06/07 01:28:00;;;;;;;1.27;0.80;;;9.70;99.90;;;;;;5090108;28;20047;-70
2023/06/07 01:30:31;;;;;;;1.05;0.60;;;9.70;99.90;;;;;;5110186;28;20055;-71
2023/06/07 01:32:58;;;;;;;1.85;0.75;;;9.70;99.90;;;;;;5108996;28;20043;-71
2023/06/07 01:35:28;;;;;;;2.17;0.80;;;9.70;99.90;;;;;;5092264;28;20047;-71
2023/06/07 01:37:55;;;;;;;2.58;0.70;;;9.80;99.90;;;;;;5108789;28;20491;-71
2023/06/07 01:40:22;;;;;;;2.40;1.00;;;9.80;99.90;;;;;;5074756;28;20088;-71
2023/06/07 01:42:49;;;;;;;2.95;1.00;;;9.80;99.90;;;;;;5090804;28;20071;-71
2023/06/07 01:45:15;;;;;;;1.75;0.70;;;9.90;99.90;;;;;;5092480;28;20057;-71
2023/06/07 01:47:41;;;;;;;2.13;0.80;;;9.90;99.90;;;;;;5091607;28;20052;-71
2023/06/07 01:50:08;;;;;;;2.17;0.70;;;9.90;99.90;;;;;;5092451;28;20076;-71
2023/06/07 01:52:34;;;;;;;1.00;0.65;;;9.90;99.90;;;;;;5111462;28;20100;-71
2023/06/07 01:55:02;;;;;;;1.85;1.05;;;10.00;99.90;;;;;;5076134;28;20452;-72
2023/06/07 01:57:51;;;;;;;1.15;0.50;;;10.00;99.90;;;;;;5110020;28;20566;-71
2023/06/07 02:00:32;;;;;;;2.30;0.73;;;10.00;99.90;;;;;;5125255;27;20482;-71
2023/06/07 02:03:19;;;;;;;1.63;0.77;;;10.00;99.90;;;;;;5093045;28;20100;-71
2023/06/07 02:05:59;;;;;;;1.25;0.60;;;10.00;99.90;;;;;;5092882;28;20046;-71
2023/06/07 02:08:37;;;;;;;0.40;0.40;;;10.00;99.90;;;;;;5092353;28;20128;-71
2023/06/07 02:11:04;;;;;;;0.50;0.40;;;10.00;99.90;;;;;;5109685;28;20046;-71
2023/06/07 02:13:34;;;;;;;1.60;0.60;;;10.00;99.90;;;;;;5126334;28;20051;-71
2023/06/07 02:16:04;;;;;;;2.83;1.25;;;10.10;99.90;;;;;;5092268;28;20054;-71
2023/06/07 02:18:31;;;;;;;3.45;1.20;;;10.10;99.90;;;;;;5092903;28;20181;-71
2023/06/07 02:20:56;;;;;;;1.92;0.93;;;10.10;99.90;;;;;;5092564;28;20055;-71
2023/06/07 02:23:22;;;;;;;3.92;1.27;;;10.20;99.90;;;;;;5092789;28;20043;-71
2023/06/07 02:25:49;;;;;;;3.47;1.20;;;10.20;99.90;;;;;;5092402;28;20039;-71
2023/06/07 02:28:15;;;;;;;3.13;1.55;;;10.30;99.90;;;;;;5092341;28;20100;-71
2023/06/07 02:30:40;;;;;;;2.45;1.05;;;10.30;99.90;;;;;;5091951;28;20040;-71
2023/06/07 02:33:13;;;;;;;2.78;1.20;;;10.30;99.90;;;;;;5110473;28;20096;-71
2023/06/07 02:35:48;;;;;;;2.50;1.17;;;10.40;99.90;;;;;;5096292;28;20036;-71
2023/06/07 02:38:14;;;;;;;1.30;1.00;;;10.40;99.90;;;;;;5080151;28;20063;-71
2023/06/07 02:40:40;;;;;;;1.75;1.17;;;10.40;99.90;;;;;;5097199;28;20075;-71
2023/06/07 02:43:05;;;;;;;2.22;0.88;;;10.50;99.90;;;;;;5099377;28;20051;-71
2023/06/07 02:45:31;;;;;;;2.40;1.13;;;10.50;99.90;;;;;;5082149;28;20098;-70
2023/06/07 02:47:57;;;;;;;2.78;1.13;;;10.50;99.90;;;;;;5097973;28;20600;-71
2023/06/07 02:50:22;;;;;;;1.90;1.05;;;10.50;99.90;;;;;;5111892;28;20124;-71
2023/06/07 02:52:48;;;;;;;1.48;0.85;;;10.50;99.90;;;;;;5097486;28;20112;-70
2023/06/07 02:55:14;;;;;;;0.93;0.63;;;10.50;99.90;;;;;;5092378;28;20035;-70
2023/06/07 02:57:43;;;;;;;1.02;0.70;;;10.60;99.90;;;;;;5080408;28;20444;-71
2023/06/07 03:00:11;;;;;;;2.35;1.00;;;10.60;99.90;;;;;;5097741;28;20043;-70
2023/06/07 03:02:41;;;;;;;1.70;1.00;;;10.60;99.90;;;;;;5096918;28;20047;-71
2023/06/07 03:05:07;;;;;;;2.10;0.85;;;10.60;99.90;;;;;;5097334;28;20078;-70
2023/06/07 03:07:35;;;;;;;4.72;0.90;;;10.70;99.90;;;;;;5097194;28;20043;-71
2023/06/07 03:10:04;;;;;;;1.80;0.65;;;10.70;99.90;;;;;;5097354;28;20047;-71
2023/06/07 03:12:29;;;;;;;0.85;0.60;;;10.70;99.90;;;;;;5131065;27;20372;-70
2023/06/07 03:14:55;;;;;;;1.58;0.68;;;10.70;99.90;;;;;;5130167;27;20051;-71
2023/06/07 03:17:21;;;;;;;1.02;0.70;;;10.70;99.90;;;;;;5095553;28;20266;-71
2023/06/07 03:19:47;;;;;;;0.73;0.70;;;10.80;99.90;;;;;;5110743;27;20048;-71
2023/06/07 03:22:13;;;;;;;0.85;0.60;;;10.80;99.90;;;;;;5095444;28;20088;-71
2023/06/07 03:24:39;;;;;;;2.42;1.10;;;10.80;99.90;;;;;;5078730;28;20144;-71
2023/06/07 03:27:11;;;;;;;4.88;1.60;;;10.80;99.90;;;;;;5095044;28;20047;-71
2023/06/07 03:29:37;;;;;;;4.78;1.60;;;10.90;99.90;;;;;;5102012;27;20054;-71
2023/06/07 03:32:03;;;;;;;2.65;1.30;;;10.90;99.90;;;;;;5099690;28;20383;-71
2023/06/07 03:34:32;;;;;;;4.45;1.35;;;11.00;99.90;;;;;;5094028;28;20047;-71
2023/06/07 03:36:58;;;;;;;2.47;1.30;;;11.00;99.90;;;;;;5094414;28;20513;-70
2023/06/07 03:39:24;;;;;;;;;;;11.10;99.90;;;;;;5111340;28;20145;-71
2023/06/07 03:41:50;;;;;;;6.25;2.25;;;11.10;99.90;;;;;;5129336;27;19945;-71
2023/06/07 03:44:15;;;;;;;4.72;2.10;;;11.20;99.90;;;;;;5094405;28;20355;-71
2023/06/07 03:46:42;;;;;;;9.57;2.17;;;11.20;74.60;;;;;;5093871;28;20047;-71
2023/06/07 03:49:07;;;;;;;;;;;11.20;99.90;;;;;;5126495;27;20070;-71
2023/06/07 03:51:33;;;;;;;9.63;2.40;;;11.30;29.50;;;;;;5093234;28;19924;-71
2023/06/07 03:53:59;;;;;;;5.25;2.13;;;11.30;99.90;;;;;;5094232;28;20077;-69
2023/06/07 03:56:29;;;;;;;5.38;1.98;;;11.30;99.90;;;;;;5078174;28;20123;-71
2023/06/07 03:58:55;;;;;;;5.25;2.00;;;11.40;99.90;;;;;;5093782;28;20047;-73
2023/06/07 04:01:25;;;;;;;3.40;1.75;;;11.40;99.90;;;;;;5093262;28;20043;-73
2023/06/07 04:03:51;;;;;;;5.72;2.08;;;11.40;99.90;;;;;;5127741;27;20457;-72
2023/06/07 04:06:20;;;;;;;5.35;2.08;;;11.40;99.90;;;;;;5094671;28;20073;-74
2023/06/07 04:08:47;;;;;;;5.95;1.90;;;11.50;99.90;;;;;;5093387;28;20058;-74
2023/06/07 04:11:13;;;;;;;6.68;2.30;;;11.50;99.90;;;;;;5111408;27;20078;-71
2023/06/07 04:13:42;;;;;;;4.95;1.80;;;11.50;99.90;;;;;;5094112;28;20452;-70
2023/06/07 04:16:07;;;;;;;4.10;1.38;;;11.60;99.90;;;;;;5093431;28;20055;-70
2023/06/07 04:18:33;;;;;;;4.10;1.58;;;11.60;99.90;;;;;;5091382;28;20039;-70
2023/06/07 04:20:59;;;;;;;9.77;2.60;;;11.60;99.90;;;;;;5093278;28;20118;-71
2023/06/07 04:23:25;;;;;;;6.47;2.13;;;11.70;60.40;;;;;;5094777;28;20062;-71
2023/06/07 04:25:53;;;;;;;5.20;2.25;;;11.70;44.80;;;;;;5110630;28;20039;-70
2023/06/07 04:28:23;;;;;;;8.10;2.40;;;11.70;31.70;;;;;;5093650;28;20058;-72
2023/06/07 04:30:51;;;;;;;10.90;2.92;;;11.70;3.60;;;;;;5091590;28;20039;-72
2023/06/07 04:33:19;;;;;;;6.18;2.40;;;11.70;1.00;;;;;;5093854;28;20043;-71
2023/06/07 04:35:46;;;;;;;5.80;1.95;;;11.70;62.70;;;;;;5093552;28;20531;-71
2023/06/07 04:38:23;;;;;;;7.00;2.22;;;11.80;56.60;;;;;;5077289;28;20046;-70
2023/06/07 04:40:50;;;;;;;2.95;1.25;;;11.80;40.50;;;;;;5092759;28;20067;-70
2023/06/07 04:43:18;;;;;;;5.80;2.10;;;11.80;93.20;;;;;;5075472;28;20035;-71
2023/06/07 04:45:53;;;;;;;10.00;2.60;;;11.90;47.40;;;;;;5127134;27;20032;-70
2023/06/07 04:48:24;;;;;;;10.82;2.60;;;11.90;1.00;;;;;;5092133;28;20486;-70
2023/06/07 04:50:51;;;;;;;5.03;1.90;;;11.90;1.00;;;;;;5093825;28;20513;-70
2023/06/07 04:53:19;;;;;;;7.30;2.42;;;12.00;1.60;;;;;;5093378;28;20832;-70
2023/06/07 04:55:47;;;;;;;4.75;1.45;;;12.00;31.60;;;;;;5091525;28;20035;-70
2023/06/07 04:58:16;;;;;;;2.85;1.50;;;12.10;55.60;;;;;;5126335;27;20035;-70
2023/06/07 05:00:43;;;;;;;5.78;2.00;;;12.10;1.00;;;;;;5092603;28;20501;-71
2023/06/07 05:03:13;;;;;;;5.80;1.92;;;12.10;1.00;;;;;;5092173;28;20044;-71
2023/06/07 05:05:40;;;;;;;2.50;1.30;;;12.20;1.00;;;;;;5093073;28;20123;-71
2023/06/07 05:08:06;;;;;;;6.85;1.98;;;12.20;1.00;;;;;;5094061;28;20127;-70
2023/06/07 05:10:32;;;;;;;5.15;2.15;;;12.20;99.90;;;;;;5091546;28;20845;-71
2023/06/07 05:12:58;;;;;;;9.32;2.97;;;12.20;99.90;;;;;;5091075;28;20054;-70
2023/06/07 05:15:24;;;;;;;8.93;2.55;;;12.20;99.90;;;;;;5075234;28;20043;-71
2023/06/07 05:17:50;;;;;;;5.72;2.35;;;12.30;99.90;;;;;;5076322;28;20040;-71
2023/06/07 05:20:16;;;;;;;5.38;2.10;;;12.30;99.90;;;;;;5091698;28;20043;-71
2023/06/07 05:22:43;;;;;;;4.05;1.60;;;12.30;99.90;;;;;;5120672;27;20071;-70
2023/06/07 05:25:11;;;;;;;3.45;1.10;;;12.40;99.90;;;;;;5088635;28;20086;-71
2023/06/07 05:27:41;;;;;;;9.15;2.17;;;12.50;99.90;;;;;;5088162;28;20089;-71
2023/06/07 05:30:08;;;;;;;2.92;1.55;;;12.50;99.90;;;;;;5107281;28;20037;-70
2023/06/07 05:32:34;;;;;;;3.92;1.80;;;12.50;99.90;;;;;;5105455;28;20047;-71
2023/06/07 05:35:01;;;;;;;5.90;2.13;;;12.60;99.90;;;;;;5122156;27;20047;-71
2023/06/07 05:37:28;;;;;;;7.35;2.22;;;12.60;99.90;;;;;;5088314;28;20035;-71
2023/06/07 05:39:54;;;;;;;7.40;2.15;;;12.60;53.90;;;;;;5087212;28;20096;-71
2023/06/07 05:42:20;;;;;;;3.95;1.63;;;12.60;46.00;;;;;;5090206;28;20039;-72
2023/06/07 05:44:47;;;;;;;4.47;1.80;;;12.70;99.90;;;;;;5108366;28;20043;-72
2023/06/07 05:47:13;;;;;;;4.82;1.63;;;12.70;99.90;;;;;;5088059;28;20476;-72
2023/06/07 05:49:38;;;;;;;7.35;2.25;;;12.80;27.10;;;;;;5085234;28;20077;-71
2023/06/07 05:52:05;;;;;;;4.65;1.85;;;12.80;1.00;;;;;;5070003;28;20068;-72
2023/06/07 05:54:31;;;;;;;3.67;1.70;;;12.90;1.00;;;;;;5088449;28;20051;-72
2023/06/07 05:56:56;;;;;;;7.50;2.28;;;13.00;99.90;;;;;;5087502;28;20423;-70
2023/06/07 05:59:22;;;;;;;6.00;2.00;;;13.10;1.00;;;;;;5085446;28;20036;-70
2023/06/07 06:01:48;;;;;;;7.45;2.75;;;13.20;99.90;;;;;;5088716;28;20082;-71
2023/06/07 06:04:16;;;;;;;5.15;2.08;;;13.20;94.90;;;;;;5089047;28;20051;-71
2023/06/07 06:06:42;;;;;;;8.45;2.42;;;13.20;99.90;;;;;;5088972;28;20108;-71
2023/06/07 06:09:07;;;;;;;5.82;2.03;;;13.20;1.00;;;;;;5088452;28;20036;-71
2023/06/07 06:11:33;;;;;;;6.05;2.33;;;13.20;1.00;;;;;;5090563;28;20040;-71
2023/06/07 06:13:59;;;;;;;6.38;2.30;;;13.30;1.00;;;;;;5066370;28;20064;-70
2023/06/07 06:16:24;;;;;;;9.63;2.78;;;13.20;99.90;;;;;;5079101;28;20141;-72
2023/06/07 06:18:51;;;;;;;6.53;1.95;;;13.20;99.90;;;;;;5053120;28;20040;-72
2023/06/07 06:21:17;;;;;;;5.35;1.98;;;13.20;1.00;;;;;;5088128;28;20095;-72
2023/06/07 06:23:42;;;;;;;5.95;2.05;;;13.30;1.00;;;;;;5088932;28;20075;-71
2023/06/07 06:26:08;;;;;;;3.92;1.83;;;13.40;99.90;;;;;;5089156;28;20050;-72
2023/06/07 06:28:34;;;;;;;4.68;1.70;;;13.50;99.90;;;;;;5061206;28;20440;-72
2023/06/07 06:31:01;;;;;;;3.63;1.42;;;13.70;99.90;;;;;;5088740;28;20475;-78
2023/06/07 06:33:27;;;;;;;3.65;1.90;;;14.00;1.00;;;;;;5086619;28;20407;-78
2023/06/07 06:35:53;;;;;;;3.35;1.40;;;14.20;4.20;;;;;;5090045;28;20047;-77
2023/06/07 06:38:19;;;;;;;3.60;1.30;;;14.50;1.00;;;;;;5069887;28;20040;-78
2023/06/07 06:40:45;;;;;;;3.88;1.70;;;14.70;99.90;;;;;;5068719;28;20036;-77
2023/06/07 06:43:12;;;;;;;6.60;2.15;;;14.90;99.90;;;;;;5084549;28;20391;-77
2023/06/07 06:45:38;;;;;;;;;;;14.90;99.90;;;;;;5086620;28;20513;-78
2023/06/07 06:48:05;;;;;;;8.20;2.10;;;15.10;99.90;;;;;;5086298;28;19931;-78
2023/06/07 06:50:30;;;;;;;3.92;1.90;;;15.10;99.90;;;;;;5118092;28;20047;-78
2023/06/07 06:52:57;;;;;;;5.68;2.28;;;15.10;1.00;;;;;;5085590;28;20039;-77
2023/06/07 06:55:23;;;;;;;3.33;1.70;;;15.20;99.90;;;;;;5120713;28;20044;-78
2023/06/07 06:57:49;;;;;;;4.57;1.42;;;15.20;82.40;;;;;;5087792;28;20040;-78
2023/06/07 07:00:15;;;;;;;4.05;1.65;;;15.30;62.10;;;;;;5086939;28;20047;-77
2023/06/07 07:02:40;;;;;;;3.28;1.50;;;15.40;99.90;;;;;;5087343;28;20048;-78
2023/06/07 07:05:07;;;;;;;4.55;1.90;;;15.60;63.00;;;;;;5121103;27;20158;-78
2023/06/07 07:07:32;;;;;;;;;;;15.80;1.00;;;;;;5088891;28;20039;-78
2023/06/07 07:09:59;;;;;;;6.13;2.08;;;15.90;99.90;;;;;;5115826;28;20264;-78
2023/06/07 07:12:28;;;;;;;3.47;1.40;;;15.90;1.00;;;;;;5085551;28;20534;-79
2023/06/07 07:14:53;;;;;;;1.73;1.13;;;16.10;20.10;;;;;;5073635;28;20040;-79
2023/06/07 07:17:20;;;;;;;4.82;1.60;;;16.40;1.00;;;;;;5089099;28;20039;-79
2023/06/07 07:19:46;;;;;;;3.97;1.88;;;16.50;99.90;;;;;;5072519;28;20094;-79
2023/06/07 07:22:12;;;;;;;5.40;1.88;;;16.30;1.00;;;;;;5089408;28;20040;-78
2023/06/07 07:24:37;;;;;;;4.75;1.75;;;15.90;99.90;;;;;;5075276;28;20537;-79
2023/06/07 07:27:03;;;;;;;4.57;1.85;;;15.80;99.90;;;;;;5120366;27;20047;-78
2023/06/07 07:29:29;;;;;;;4.53;1.60;;;15.60;1.00;;;;;;5088204;28;20083;-79
2023/06/07 07:31:55;;;;;;;5.60;1.95;;;15.30;1.00;;;;;;5084369;28;20094;-78
2023/06/07 07:34:21;;;;;;;3.20;1.75;;;15.10;1.00;;;;;;5074895;28;20055;-79
2023/06/07 07:36:46;;;;;;;7.15;2.08;;;15.10;90.00;;;;;;5090822;28;20395;-79
2023/06/07 07:39:18;;;;;;;4.45;1.63;;;15.00;99.90;;;;;;5068783;28;20093;-75
2023/06/07 07:41:44;;;;;;;5.40;1.83;;;15.00;99.90;;;;;;5089967;28;20047;-73
2023/06/07 07:44:09;;;;;;;4.68;2.35;;;14.90;99.90;;;;;;5089451;28;20052;-73
2023/06/07 07:46:36;;;;;;;4.10;1.85;;;14.70;99.90;;;;;;5091936;28;20032;-71
2023/06/07 07:49:02;;;;;;;4.95;2.40;;;14.70;99.90;;;;;;5091167;28;20066;-72
2023/06/07 07:51:27;;;;;;;4.78;2.17;;;14.80;99.90;;;;;;5112065;28;20040;-72
2023/06/07 07:53:54;;;;;;;4.28;2.08;;;15.00;99.90;;;;;;5074751;28;20408;-72
2023/06/07 07:56:21;;;;;;;4.97;2.00;;;15.30;82.00;;;;;;5077642;28;20052;-77
2023/06/07 07:58:50;;;;;;;8.70;2.15;;;15.40;76.40;;;;;;5093701;28;20039;-77
2023/06/07 08:01:18;;;;;;;3.60;1.83;;;15.60;1.00;;;;;;5094054;28;20039;-77
2023/06/07 08:03:45;;;;;;;6.20;2.38;;;15.60;1.00;;;;;;5085289;28;20398;-77
2023/06/07 08:06:11;;;;;;;4.82;2.17;;;15.50;1.00;;;;;;5111991;28;20043;-77
2023/06/07 08:08:37;;;;;;;3.88;1.80;;;15.10;1.00;;;;;;5093061;28;20031;-77
2023/06/07 08:11:02;;;;;;;2.45;1.50;;;15.20;1.00;;;;;;5112922;28;20395;-78
2023/06/07 08:13:28;;;;;;;4.72;1.80;;;15.20;1.00;;;;;;5073917;28;20043;-77
2023/06/07 08:15:55;;;;;;;4.45;1.90;;;15.40;1.00;;;;;;5091529;28;20035;-77
2023/06/07 08:18:20;;;;;;;5.63;2.00;;;15.60;1.00;;;;;;5090639;28;20047;-77
2023/06/07 08:20:46;;;;;;;8.45;2.53;;;15.90;99.90;;;;;;5077144;28;20046;-77
2023/06/07 08:23:12;;;;;;;4.78;1.95;;;16.00;1.00;;;;;;5111376;28;20047;-77
2023/06/07 08:25:38;;;;;;;6.35;2.53;;;16.20;99.90;;;;;;5110899;28;20479;-76
2023/06/07 08:28:04;;;;;;;5.13;2.10;;;16.30;99.90;;;;;;5093368;28;20044;-76
2023/06/07 08:30:30;;;;;;;6.97;2.95;;;16.60;1.00;;;;;;5072978;28;20061;-76
2023/06/07 08:32:56;;;;;;;;;;;16.60;99.90;;;;;;5110987;28;20042;-76
2023/06/07 08:35:22;;;;;;;6.57;2.40;;;16.70;99.90;;;;;;5092454;28;20291;-76
2023/06/07 08:37:48;;;;;;;4.13;1.90;;;16.90;99.90;;;;;;5091554;28;20049;-76
2023/06/07 08:40:18;;;;;;;7.13;2.65;;;16.90;99.90;;;;;;5125633;27;20101;-76
2023/06/07 08:42:45;;;;;;;5.20;2.17;;;17.00;99.90;;;;;;5111857;28;20035;-77
2023/06/07 08:45:11;;;;;;;3.50;1.80;;;17.00;99.90;;;;;;5072008;28;20040;-76
2023/06/07 08:47:42;;;;;;;3.97;1.60;;;17.20;99.90;;;;;;5090763;28;20510;-77
2023/06/07 08:50:13;;;;;;;6.60;2.20;;;17.60;99.90;;;;;;5088844;28;20451;-76
2023/06/07 08:52:40;;;;;;;5.00;2.22;;;17.50;99.90;;;;;;5090167;28;20536;-77
2023/06/07 08:55:11;;;;;;;3.78;1.85;;;17.70;99.90;;;;;;5091733;28;20043;-77
2023/06/07 08:57:38;;;;;;;5.35;2.10;;;18.00;99.90;;;;;;5122222;27;20047;-76
2023/06/07 09:00:08;;;;;;;6.18;2.25;;;18.00;99.90;;;;;;5106089;28;20101;-76
2023/06/07 09:02:34;;;;;;;8.75;2.63;;;17.90;99.90;;;;;;5091567;28;20043;-76
2023/06/07 09:05:06;;;;;;;;;;;17.90;47.60;;;;;;5125669;27;20062;-76
2023/06/07 09:07:35;;;;;;;5.07;2.20;;;17.80;99.90;;;;;;5092393;28;19919;-77
2023/06/07 09:10:01;;;;;;;3.67;2.03;;;18.20;99.90;;;;;;5091556;28;20142;-77
2023/06/07 09:12:27;;;;;;;6.05;2.30;;;18.10;68.70;;;;;;5091000;28;20088;-77
2023/06/07 09:14:53;;;;;;;;;;;18.00;99.90;;;;;;5111865;28;20051;-77
2023/06/07 09:17:19;;;;;;;6.80;2.33;;;18.10;78.40;;;;;;5090425;28;19922;-77
2023/06/07 09:19:44;;;;;;;;;;;18.20;52.70;;;;;;5107276;28;20074;-77
2023/06/07 09:22:14;;;;;;;5.13;2.17;;;18.20;33.80;;;;;;5092477;28;19927;-77
2023/06/07 09:24:40;;;;;;;5.63;2.13;;;18.20;21.20;;;;;;5075734;28;20394;-77
2023/06/07 09:27:08;;;;;;;4.75;1.90;;;18.30;31.00;;;;;;5073929;28;20067;-76
2023/06/07 09:29:41;;;;;;;5.13;2.22;;;18.50;17.30;;;;;;5123935;27;20035;-77
2023/06/07 09:32:21;;;;;;;3.80;1.98;;;18.40;42.50;;;;;;5103286;28;20184;-76
2023/06/07 09:34:48;;;;;;;3.58;1.80;;;18.30;98.60;;;;;;5124134;27;20119;-77
2023/06/07 09:37:16;;;;;;;5.57;2.28;;;18.50;14.70;;;;;;5089057;28;20036;-76
2023/06/07 09:39:43;;;;;;;5.72;2.13;;;18.70;90.00;;;;;;5091534;28;20046;-76
2023/06/07 09:42:15;;;;;;;4.88;1.90;;;18.60;21.80;;;;;;5091462;28;20122;-77
2023/06/07 09:44:41;;;;;;;4.85;2.30;;;18.40;1.00;;;;;;5091506;28;20134;-77
2023/06/07 09:47:18;;;;;;;;;;;18.30;69.40;;;;;;5091240;28;20866;-76
2023/06/07 09:49:43;;;;;;;4.32;2.15;;;18.50;86.60;;;;;;5126285;27;20355;-76
2023/06/07 09:52:16;;;;;;;;;;;18.50;61.80;;;;;;5125567;27;20040;-76
2023/06/07 09:54:45;;;;;;;2.92;1.60;;;18.80;21.80;;;;;;5072026;28;19924;-76
2023/06/07 09:57:12;;;;;;;5.65;2.40;;;19.30;1.00;;;;;;5075356;28;20090;-70
2023/06/07 09:59:59;;;;;;;5.25;2.55;;;19.40;1.00;;;;;;5078080;28;20050;-70
2023/06/07 10:02:29;;;;;;;6.20;2.60;;;19.30;1.00;;;;;;5090375;28;20471;-70
2023/06/07 10:04:59;;;;;;;6.70;2.50;;;18.70;1.00;;;;;;5091807;28;20046;-70
2023/06/07 10:07:33;;;;;;;8.20;2.90;;;18.60;3.60;;;;;;5088107;28;20119;-70
2023/06/07 10:10:00;;;;;;;8.23;2.83;;;18.80;1.00;;;;;;5107454;28;20052;-70
2023/06/07 10:12:31;;;;;;;10.98;3.10;;;18.90;23.30;;;;;;5089086;28;20036;-70
2023/06/07 10:15:02;;;;;;;6.20;2.47;;;18.90;72.20;;;;;;5092183;28;20535;-71
2023/06/07 10:17:50;;;;;;;8.75;2.67;;;19.00;1.00;;;;;;5108496;28;20712;-71
2023/06/07 10:20:28;;;;;;;5.22;2.60;;;18.80;1.00;;;;;;5070133;28;20519;-70
2023/06/07 10:23:04;;;;;;;7.38;2.45;;;18.80;29.50;;;;;;5091014;28;20490;-71
2023/06/07 10:25:33;;;;;;;;;;;18.90;2.80;;;;;;5092411;28;20052;-71
2023/06/07 10:28:16;;;;;;;6.65;2.40;;;18.90;1.00;;;;;;5090462;28;19915;-70
2023/06/07 10:30:54;;;;;;;5.93;2.30;;;18.70;1.00;;;;;;5125699;28;20046;-70
2023/06/07 10:33:25;;;;;;;9.95;3.13;;;18.70;1.00;;;;;;5074502;28;20151;-77
2023/06/07 10:35:51;;;;;;;5.25;2.58;;;18.60;57.10;;;;;;5091952;28;20082;-77
2023/06/07 10:38:18;;;;;;;5.97;2.30;;;18.70;84.10;;;;;;5109877;28;20165;-76
2023/06/07 10:40:44;;;;;;;4.65;2.30;;;18.80;33.40;;;;;;5101330;28;20394;-77
2023/06/07 10:43:10;;;;;;;;;;;18.90;52.00;;;;;;5108544;28;20032;-77
2023/06/07 10:45:35;;;;;;;6.75;2.80;;;19.40;1.00;;;;;;5091031;28;19923;-76
2023/06/07 10:48:20;;;;;;;;;;;19.50;1.00;;;;;;5091570;28;20059;-77
2023/06/07 10:50:47;;;;;;;6.75;2.80;;;19.50;1.00;;;;;;5109849;28;19916;-76
2023/06/07 10:53:13;;;;;;;9.88;3.10;;;19.30;1.00;;;;;;5090231;28;20168;-77
2023/06/07 10:55:39;;;;;;;;;;;19.40;1.00;;;;;;5109736;28;20126;-77
2023/06/07 10:58:25;;;;;;;8.13;2.97;;;19.60;99.90;;;;;;5129720;27;20006;-77
2023/06/07 11:00:50;;;;;;;6.20;2.63;;;19.90;1.00;;;;;;5111208;28;20051;-77
2023/06/07 11:03:22;;;;;;;;;;;19.90;99.90;;;;;;5077871;28;20047;-76
2023/06/07 11:06:05;;;;;;;5.43;3.05;;;20.10;1.00;;;;;;5078090;27;20422;-77
2023/06/07 11:08:36;;;;;;;5.55;2.58;;;20.10;99.90;;;;;;5094196;28;20042;-76
2023/06/07 11:11:04;;;;;;;5.97;2.30;;;19.90;99.90;;;;;;5087946;28;20047;-76
2023/06/07 11:13:39;;;;;;;4.93;2.20;;;20.10;1.00;;;;;;5112144;27;20044;-76
2023/06/07 11:16:34;;;;;;;6.55;2.50;;;19.80;99.90;;;;;;5091772;28;20055;-76
2023/06/07 11:19:05;;;;;;;6.00;2.53;;;19.90;1.00;;;;;;5128137;27;20040;-76
2023/06/07 11:22:00;;;;;;;6.75;2.65;;;19.80;1.00;;;;;;5120699;27;20044;-76
2023/06/07 11:24:26;;;;;;;6.28;2.70;;;19.60;1.00;;;;;;5094793;28;20131;-77
2023/06/07 11:26:52;;;;;;;6.15;2.75;;;19.70;1.00;;;;;;5094447;28;20074;-77
2023/06/07 11:29:18;;;;;;;;;;;20.10;1.00;;;;;;5078471;28;20669;-77
2023/06/07 11:31:47;;;;;;;6.15;2.47;;;20.20;1.00;;;;;;5076676;28;19919;-77
2023/06/07 11:34:14;;;;;;;7.10;2.75;;;20.50;99.90;;;;;;5093427;28;20487;-77
2023/06/07 11:36:41;;;;;;;7.07;3.38;;;20.50;99.90;;;;;;5126739;27;20039;-77
2023/06/07 11:39:08;;;;;;;5.85;2.50;;;20.60;99.90;;;;;;5093186;28;20085;-76
2023/06/07 11:41:40;;;;;;;6.25;2.50;;;20.90;99.90;;;;;;5074390;28;20138;-76
2023/06/07 11:44:06;;;;;;;7.03;2.65;;;20.80;99.90;;;;;;5078522;28;20040;-75
2023/06/07 11:46:33;;;;;;;5.03;2.88;;;20.50;99.90;;;;;;5091067;28;20039;-75
2023/06/07 11:49:11;;;;;;;5.53;2.70;;;20.50;99.90;;;;;;5112605;28;20051;-76
2023/06/07 11:51:38;;;;;;;6.97;2.70;;;20.30;99.90;;;;;;5094263;28;20040;-76
2023/06/07 11:54:05;;;;;;;8.40;2.90;;;20.40;99.90;;;;;;5097477;28;20555;-76
2023/06/07 11:56:36;;;;;;;4.82;2.33;;;20.60;99.90;;;;;;5094112;28;20043;-75
2023/06/07 11:59:03;;;;;;;6.53;2.53;;;20.50;99.90;;;;;;5078828;28;20052;-76
2023/06/07 12:01:31;;;;;;;4.50;2.22;;;20.10;99.90;;;;;;5080544;28;20047;-76
2023/06/07 12:03:57;;;;;;;7.95;3.00;;;20.50;99.90;;;;;;5096248;28;20043;-76
2023/06/07 12:06:26;;;;;;;5.53;2.17;;;20.40;99.90;;;;;;5095470;28;20135;-76
2023/06/07 12:08:52;;;;;;;6.13;2.20;;;20.60;99.90;;;;;;5079678;28;20050;-77
2023/06/07 12:11:24;;;;;;;3.67;2.20;;;20.90;99.90;;;;;;5095535;28;20043;-77
2023/06/07 12:13:53;;;;;;;5.53;2.42;;;21.00;99.90;;;;;;5095355;28;20043;-77
2023/06/07 12:16:21;;;;;;;4.05;2.13;;;21.00;99.90;;;;;;5078391;28;20490;-77
2023/06/07 12:18:47;;;;;;;7.90;2.47;;;21.10;99.90;;;;;;5078192;28;20475;-77
2023/06/07 12:21:16;;;;;;;6.53;2.40;;;21.00;99.90;;;;;;5094976;28;20051;-76
2023/06/07 12:23:53;;;;;;;6.80;2.20;;;21.10;99.90;;;;;;5095057;28;20054;-76
2023/06/07 12:26:29;;;;;;;4.88;2.30;;;21.20;99.90;;;;;;5094817;28;20090;-76
2023/06/07 12:28:55;;;;;;;;;;;21.20;99.90;;;;;;5094405;28;20046;-77
2023/06/07 12:31:20;;;;;;;7.97;2.72;;;21.10;99.90;;;;;;5094613;28;19920;-76
2023/06/07 12:33:57;;;;;;;;;;;20.60;99.90;;;;;;5095319;28;20039;-76
2023/06/07 12:36:25;;;;;;;5.75;2.65;;;20.60;99.90;;;;;;5077432;28;20000;-76
2023/06/07 12:38:51;;;;;;;7.07;2.55;;;20.80;99.90;;;;;;5094236;28;20126;-76
2023/06/07 12:41:17;;;;;;;4.45;2.15;;;21.00;99.90;;;;;;5073814;28;20610;-76
2023/06/07 12:43:46;;;;;;;7.72;2.95;;;20.80;99.90;;;;;;5074009;28;20550;-76
2023/06/07 12:46:13;;;;;;;6.80;2.90;;;20.60;99.90;;;;;;5073899;28;20124;-76
2023/06/07 12:48:39;;;;;;;6.18;2.65;;;20.80;99.90;;;;;;5092088;28;20070;-76
2023/06/07 12:51:06;;;;;;;7.30;2.63;;;21.00;99.90;;;;;;5107482;28;20079;-76
2023/06/07 12:53:32;;;;;;;7.53;2.63;;;21.10;99.90;;;;;;5090568;28;20066;-75
2023/06/07 12:55:57;;;;;;;8.05;2.70;;;20.90;99.90;;;;;;5073887;28;20064;-75
2023/06/07 12:58:23;;;;;;;;;;;20.80;99.90;;;;;;5074377;28;20403;-75
2023/06/07 13:00:49;;;;;;;7.20;2.60;;;20.60;99.90;;;;;;5107400;28;20309;-75